sensor_id;sensor_type;location;lat;lon;timestamp;P1;durP1;ratioP1;P2;durP2;ratioP2
20739;SDS011;10530;49.968;19.844;2022-08-04T00:03:23;28.77;;;13.77;;
20739;SDS011;10530;49.968;19.844;2022-08-04T00:13:43;28.83;;;13.77;;
20739;SDS011;10530;49.968;19.844;2022-08-04T00:19:06;94.53;;;13.67;;
20739;SDS011;10530;49.968;19.844;2022-08-04T00:24:32;31.42;;;12.35;;
20739;SDS011;10530;49.968;19.844;2022-08-04T00:29:39;28.02;;;13.20;;
20739;SDS011;10530;49.968;19.844;2022-08-04T00:34:42;24.77;;;11.90;;
20739;SDS011;10530;49.968;19.844;2022-08-04T00:39:45;31.77;;;13.50;;
20739;SDS011;10530;49.968;19.844;2022-08-04T00:50:03;26.35;;;12.30;;
20739;SDS011;10530;49.968;19.844;2022-08-04T01:01:00;31.48;;;13.82;;
20739;SDS011;10530;49.968;19.844;2022-08-04T01:11:48;29.07;;;13.07;;
20739;SDS011;10530;49.968;19.844;2022-08-04T01:17:23;28.20;;;13.32;;
20739;SDS011;10530;49.968;19.844;2022-08-04T01:33:21;33.58;;;14.88;;
20739;SDS011;10530;49.968;19.844;2022-08-04T01:38:28;33.87;;;15.30;;
20739;SDS011;10530;49.968;19.844;2022-08-04T01:43:39;32.75;;;14.50;;
20739;SDS011;10530;49.968;19.844;2022-08-04T01:48:44;30.92;;;13.02;;
20739;SDS011;10530;49.968;19.844;2022-08-04T01:53:48;28.13;;;12.95;;
20739;SDS011;10530;49.968;19.844;2022-08-04T01:58:51;28.58;;;13.15;;
20739;SDS011;10530;49.968;19.844;2022-08-04T02:03:58;30.27;;;13.97;;
20739;SDS011;10530;49.968;19.844;2022-08-04T02:14:58;30.23;;;13.48;;
20739;SDS011;10530;49.968;19.844;2022-08-04T02:20:14;25.55;;;11.35;;
20739;SDS011;10530;49.968;19.844;2022-08-04T02:25:23;32.95;;;12.38;;
20739;SDS011;10530;49.968;19.844;2022-08-04T02:30:39;105.63;;;14.70;;
20739;SDS011;10530;49.968;19.844;2022-08-04T02:35:58;28.08;;;11.77;;
20739;SDS011;10530;49.968;19.844;2022-08-04T02:41:04;31.92;;;12.40;;
20739;SDS011;10530;49.968;19.844;2022-08-04T02:46:10;26.15;;;12.07;;
20739;SDS011;10530;49.968;19.844;2022-08-04T02:51:20;27.20;;;11.95;;
20739;SDS011;10530;49.968;19.844;2022-08-04T02:56:26;27.83;;;12.97;;
20739;SDS011;10530;49.968;19.844;2022-08-04T03:01:31;27.67;;;12.07;;
20739;SDS011;10530;49.968;19.844;2022-08-04T03:28:45;28.48;;;13.27;;
20739;SDS011;10530;49.968;19.844;2022-08-04T04:02:39;26.67;;;12.30;;
20739;SDS011;10530;49.968;19.844;2022-08-04T04:13:28;25.50;;;12.55;;
20739;SDS011;10530;49.968;19.844;2022-08-04T04:35:22;28.23;;;13.05;;
20739;SDS011;10530;49.968;19.844;2022-08-04T04:41:03;31.63;;;14.48;;
20739;SDS011;10530;49.968;19.844;2022-08-04T04:51:41;29.88;;;14.50;;
20739;SDS011;10530;49.968;19.844;2022-08-04T05:02:18;29.90;;;14.95;;
20739;SDS011;10530;49.968;19.844;2022-08-04T05:13:30;30.97;;;13.47;;
20739;SDS011;10530;49.968;19.844;2022-08-04T05:19:23;30.40;;;13.85;;
20739;SDS011;10530;49.968;19.844;2022-08-04T05:24:47;26.20;;;14.23;;
20739;SDS011;10530;49.968;19.844;2022-08-04T05:29:56;28.08;;;14.32;;
20739;SDS011;10530;49.968;19.844;2022-08-04T05:35:04;21.13;;;10.65;;
20739;SDS011;10530;49.968;19.844;2022-08-04T05:40:11;19.50;;;10.40;;
20739;SDS011;10530;49.968;19.844;2022-08-04T05:45:15;18.08;;;9.88;;
20739;SDS011;10530;49.968;19.844;2022-08-04T05:50:19;17.45;;;8.98;;
20739;SDS011;10530;49.968;19.844;2022-08-04T05:55:24;15.80;;;8.88;;
20739;SDS011;10530;49.968;19.844;2022-08-04T06:00:49;15.27;;;8.25;;
20739;SDS011;10530;49.968;19.844;2022-08-04T06:05:53;15.00;;;8.60;;
20739;SDS011;10530;49.968;19.844;2022-08-04T06:11:01;16.80;;;8.73;;
20739;SDS011;10530;49.968;19.844;2022-08-04T06:16:06;14.65;;;8.27;;
20739;SDS011;10530;49.968;19.844;2022-08-04T06:21:31;12.90;;;7.03;;
20739;SDS011;10530;49.968;19.844;2022-08-04T06:26:36;10.88;;;6.63;;
20739;SDS011;10530;49.968;19.844;2022-08-04T06:31:41;11.30;;;6.47;;
20739;SDS011;10530;49.968;19.844;2022-08-04T06:37:07;13.05;;;7.35;;
20739;SDS011;10530;49.968;19.844;2022-08-04T06:42:12;12.68;;;6.57;;
20739;SDS011;10530;49.968;19.844;2022-08-04T06:47:25;15.63;;;7.75;;
20739;SDS011;10530;49.968;19.844;2022-08-04T06:52:29;10.23;;;5.57;;
20739;SDS011;10530;49.968;19.844;2022-08-04T06:57:34;10.47;;;5.37;;
20739;SDS011;10530;49.968;19.844;2022-08-04T07:02:47;7.72;;;4.88;;
20739;SDS011;10530;49.968;19.844;2022-08-04T07:07:54;9.10;;;4.68;;
20739;SDS011;10530;49.968;19.844;2022-08-04T07:12:59;6.43;;;4.47;;
20739;SDS011;10530;49.968;19.844;2022-08-04T07:18:02;8.60;;;4.10;;
20739;SDS011;10530;49.968;19.844;2022-08-04T07:23:06;6.27;;;3.90;;
20739;SDS011;10530;49.968;19.844;2022-08-04T07:28:12;5.30;;;3.50;;
20739;SDS011;10530;49.968;19.844;2022-08-04T07:33:15;5.50;;;3.47;;
20739;SDS011;10530;49.968;19.844;2022-08-04T07:38:19;5.05;;;3.40;;
20739;SDS011;10530;49.968;19.844;2022-08-04T07:43:29;6.50;;;3.47;;
20739;SDS011;10530;49.968;19.844;2022-08-04T07:48:33;5.73;;;3.03;;
20739;SDS011;10530;49.968;19.844;2022-08-04T07:53:36;4.60;;;2.80;;
20739;SDS011;10530;49.968;19.844;2022-08-04T07:58:57;6.20;;;3.20;;
20739;SDS011;10530;49.968;19.844;2022-08-04T08:04:02;5.00;;;3.15;;
20739;SDS011;10530;49.968;19.844;2022-08-04T08:09:09;5.68;;;3.10;;
20739;SDS011;10530;49.968;19.844;2022-08-04T08:14:21;5.40;;;2.97;;
20739;SDS011;10530;49.968;19.844;2022-08-04T08:19:26;5.22;;;3.25;;
20739;SDS011;10530;49.968;19.844;2022-08-04T08:24:34;4.97;;;2.50;;
20739;SDS011;10530;49.968;19.844;2022-08-04T08:29:38;5.47;;;3.45;;
20739;SDS011;10530;49.968;19.844;2022-08-04T08:34:41;6.25;;;3.50;;
20739;SDS011;10530;49.968;19.844;2022-08-04T08:40:03;5.13;;;3.30;;
20739;SDS011;10530;49.968;19.844;2022-08-04T08:45:45;5.90;;;3.50;;
20739;SDS011;10530;49.968;19.844;2022-08-04T09:12:45;6.45;;;3.28;;
20739;SDS011;10530;49.968;19.844;2022-08-04T09:23:15;5.97;;;3.17;;
20739;SDS011;10530;49.968;19.844;2022-08-04T09:28:25;5.78;;;3.40;;
20739;SDS011;10530;49.968;19.844;2022-08-04T09:34:03;4.17;;;2.90;;
20739;SDS011;10530;49.968;19.844;2022-08-04T09:39:28;5.35;;;3.10;;
20739;SDS011;10530;49.968;19.844;2022-08-04T09:50:43;5.35;;;3.28;;
20739;SDS011;10530;49.968;19.844;2022-08-04T09:55:57;4.78;;;3.35;;
20739;SDS011;10530;49.968;19.844;2022-08-04T10:01:18;5.03;;;3.37;;
20739;SDS011;10530;49.968;19.844;2022-08-04T10:22:32;4.85;;;3.50;;
20739;SDS011;10530;49.968;19.844;2022-08-04T10:28:02;5.57;;;3.60;;
20739;SDS011;10530;49.968;19.844;2022-08-04T10:38:56;6.60;;;3.70;;
20739;SDS011;10530;49.968;19.844;2022-08-04T10:44:14;6.85;;;3.70;;
20739;SDS011;10530;49.968;19.844;2022-08-04T10:49:42;5.57;;;3.60;;
20739;SDS011;10530;49.968;19.844;2022-08-04T10:54:56;5.63;;;3.43;;
20739;SDS011;10530;49.968;19.844;2022-08-04T11:00:13;5.20;;;3.58;;
20739;SDS011;10530;49.968;19.844;2022-08-04T11:11:11;5.80;;;4.07;;
20739;SDS011;10530;49.968;19.844;2022-08-04T11:16:25;5.47;;;3.85;;
20739;SDS011;10530;49.968;19.844;2022-08-04T11:21:32;6.57;;;3.80;;
20739;SDS011;10530;49.968;19.844;2022-08-04T11:26:40;5.75;;;3.78;;
20739;SDS011;10530;49.968;19.844;2022-08-04T11:31:50;6.10;;;4.03;;
20739;SDS011;10530;49.968;19.844;2022-08-04T11:36:58;5.60;;;3.97;;
20739;SDS011;10530;49.968;19.844;2022-08-04T11:47:26;5.87;;;4.13;;
20739;SDS011;10530;49.968;19.844;2022-08-04T11:52:51;5.80;;;3.97;;
20739;SDS011;10530;49.968;19.844;2022-08-04T11:57:57;7.20;;;4.05;;
20739;SDS011;10530;49.968;19.844;2022-08-04T12:19:50;6.13;;;4.03;;
20739;SDS011;10530;49.968;19.844;2022-08-04T12:30:10;4.97;;;3.80;;
20739;SDS011;10530;49.968;19.844;2022-08-04T12:35:37;6.40;;;3.92;;
20739;SDS011;10530;49.968;19.844;2022-08-04T12:41:06;5.30;;;4.07;;
20739;SDS011;10530;49.968;19.844;2022-08-04T12:46:21;4.80;;;3.70;;
20739;SDS011;10530;49.968;19.844;2022-08-04T12:51:27;6.10;;;3.83;;
20739;SDS011;10530;49.968;19.844;2022-08-04T12:56:50;5.95;;;4.28;;
20739;SDS011;10530;49.968;19.844;2022-08-04T13:01:58;7.03;;;3.97;;
20739;SDS011;10530;49.968;19.844;2022-08-04T13:07:09;6.03;;;3.87;;
20739;SDS011;10530;49.968;19.844;2022-08-04T13:12:19;5.95;;;3.97;;
20739;SDS011;10530;49.968;19.844;2022-08-04T13:23:16;8.10;;;3.67;;
20739;SDS011;10530;49.968;19.844;2022-08-04T13:28:23;5.50;;;3.95;;
20739;SDS011;10530;49.968;19.844;2022-08-04T13:33:33;5.67;;;3.80;;
20739;SDS011;10530;49.968;19.844;2022-08-04T13:38:39;6.53;;;4.13;;
20739;SDS011;10530;49.968;19.844;2022-08-04T13:43:48;5.95;;;4.20;;
20739;SDS011;10530;49.968;19.844;2022-08-04T13:49:16;5.95;;;3.90;;
20739;SDS011;10530;49.968;19.844;2022-08-04T13:54:44;6.28;;;3.83;;
20739;SDS011;10530;49.968;19.844;2022-08-04T13:59:56;7.30;;;3.87;;
20739;SDS011;10530;49.968;19.844;2022-08-04T14:05:08;5.45;;;3.55;;
20739;SDS011;10530;49.968;19.844;2022-08-04T14:10:28;5.82;;;3.78;;
20739;SDS011;10530;49.968;19.844;2022-08-04T14:15:39;6.13;;;3.97;;
20739;SDS011;10530;49.968;19.844;2022-08-04T14:21:11;5.70;;;3.55;;
20739;SDS011;10530;49.968;19.844;2022-08-04T14:31:34;6.88;;;3.80;;
20739;SDS011;10530;49.968;19.844;2022-08-04T14:36:56;6.18;;;3.72;;
20739;SDS011;10530;49.968;19.844;2022-08-04T14:42:38;5.95;;;3.88;;
20739;SDS011;10530;49.968;19.844;2022-08-04T14:47:43;6.55;;;4.10;;
20739;SDS011;10530;49.968;19.844;2022-08-04T14:53:00;6.87;;;3.63;;
20739;SDS011;10530;49.968;19.844;2022-08-04T14:58:30;5.55;;;3.80;;
20739;SDS011;10530;49.968;19.844;2022-08-04T15:03:40;5.50;;;3.78;;
20739;SDS011;10530;49.968;19.844;2022-08-04T15:08:54;5.30;;;3.85;;
20739;SDS011;10530;49.968;19.844;2022-08-04T15:14:04;4.68;;;3.25;;
20739;SDS011;10530;49.968;19.844;2022-08-04T15:19:06;6.20;;;3.70;;
20739;SDS011;10530;49.968;19.844;2022-08-04T15:24:10;5.70;;;3.75;;
20739;SDS011;10530;49.968;19.844;2022-08-04T15:29:15;7.22;;;3.58;;
20739;SDS011;10530;49.968;19.844;2022-08-04T15:34:21;6.68;;;4.10;;
20739;SDS011;10530;49.968;19.844;2022-08-04T15:39:27;5.53;;;3.60;;
20739;SDS011;10530;49.968;19.844;2022-08-04T15:44:57;6.13;;;3.23;;
20739;SDS011;10530;49.968;19.844;2022-08-04T15:50:12;5.53;;;3.85;;
20739;SDS011;10530;49.968;19.844;2022-08-04T15:55:33;5.47;;;3.55;;
20739;SDS011;10530;49.968;19.844;2022-08-04T16:05:50;5.50;;;3.80;;
20739;SDS011;10530;49.968;19.844;2022-08-04T16:10:53;6.37;;;3.80;;
20739;SDS011;10530;49.968;19.844;2022-08-04T16:15:56;5.18;;;3.33;;
20739;SDS011;10530;49.968;19.844;2022-08-04T16:21:05;5.32;;;3.45;;
20739;SDS011;10530;49.968;19.844;2022-08-04T16:37:11;5.10;;;3.50;;
20739;SDS011;10530;49.968;19.844;2022-08-04T16:52:50;6.20;;;3.38;;
20739;SDS011;10530;49.968;19.844;2022-08-04T16:57:57;6.63;;;3.42;;
20739;SDS011;10530;49.968;19.844;2022-08-04T17:03:00;6.20;;;3.50;;
20739;SDS011;10530;49.968;19.844;2022-08-04T17:08:07;5.30;;;3.50;;
20739;SDS011;10530;49.968;19.844;2022-08-04T17:13:35;8.32;;;3.67;;
20739;SDS011;10530;49.968;19.844;2022-08-04T17:19:00;5.78;;;3.65;;
20739;SDS011;10530;49.968;19.844;2022-08-04T17:24:04;5.97;;;4.00;;
20739;SDS011;10530;49.968;19.844;2022-08-04T17:29:17;7.83;;;3.80;;
20739;SDS011;10530;49.968;19.844;2022-08-04T17:34:21;6.65;;;3.80;;
20739;SDS011;10530;49.968;19.844;2022-08-04T17:39:27;5.68;;;3.63;;
20739;SDS011;10530;49.968;19.844;2022-08-04T17:44:38;6.57;;;4.07;;
20739;SDS011;10530;49.968;19.844;2022-08-04T17:49:43;6.70;;;4.10;;
20739;SDS011;10530;49.968;19.844;2022-08-04T17:54:57;7.20;;;4.23;;
20739;SDS011;10530;49.968;19.844;2022-08-04T18:00:04;8.07;;;4.20;;
20739;SDS011;10530;49.968;19.844;2022-08-04T18:05:09;7.95;;;3.97;;
20739;SDS011;10530;49.968;19.844;2022-08-04T18:10:15;8.27;;;4.15;;
20739;SDS011;10530;49.968;19.844;2022-08-04T18:15:36;6.97;;;4.35;;
20739;SDS011;10530;49.968;19.844;2022-08-04T18:20:47;7.63;;;4.00;;
20739;SDS011;10530;49.968;19.844;2022-08-04T18:25:50;6.82;;;4.15;;
20739;SDS011;10530;49.968;19.844;2022-08-04T18:30:54;9.25;;;4.47;;
20739;SDS011;10530;49.968;19.844;2022-08-04T18:35:57;6.70;;;4.00;;
20739;SDS011;10530;49.968;19.844;2022-08-04T18:41:20;10.02;;;4.50;;
20739;SDS011;10530;49.968;19.844;2022-08-04T18:46:23;7.97;;;4.50;;
20739;SDS011;10530;49.968;19.844;2022-08-04T18:51:27;10.07;;;4.78;;
20739;SDS011;10530;49.968;19.844;2022-08-04T18:56:32;8.52;;;4.90;;
20739;SDS011;10530;49.968;19.844;2022-08-04T19:01:36;10.73;;;4.60;;
20739;SDS011;10530;49.968;19.844;2022-08-04T19:07:01;10.13;;;4.80;;
20739;SDS011;10530;49.968;19.844;2022-08-04T19:12:27;8.07;;;4.90;;
20739;SDS011;10530;49.968;19.844;2022-08-04T19:17:30;8.20;;;5.45;;
20739;SDS011;10530;49.968;19.844;2022-08-04T19:22:53;8.13;;;5.20;;
20739;SDS011;10530;49.968;19.844;2022-08-04T19:28:17;10.15;;;5.20;;
20739;SDS011;10530;49.968;19.844;2022-08-04T19:33:22;8.75;;;5.00;;
20739;SDS011;10530;49.968;19.844;2022-08-04T19:38:26;8.17;;;4.87;;
20739;SDS011;10530;49.968;19.844;2022-08-04T19:43:31;9.75;;;5.00;;
20739;SDS011;10530;49.968;19.844;2022-08-04T19:48:34;13.18;;;5.25;;
20739;SDS011;10530;49.968;19.844;2022-08-04T19:53:38;7.75;;;4.97;;
20739;SDS011;10530;49.968;19.844;2022-08-04T19:58:44;9.05;;;4.88;;
20739;SDS011;10530;49.968;19.844;2022-08-04T20:03:49;7.03;;;4.83;;
20739;SDS011;10530;49.968;19.844;2022-08-04T20:09:11;9.60;;;5.20;;
20739;SDS011;10530;49.968;19.844;2022-08-04T20:14:27;8.88;;;5.40;;
20739;SDS011;10530;49.968;19.844;2022-08-04T20:19:33;8.23;;;4.85;;
20739;SDS011;10530;49.968;19.844;2022-08-04T20:24:37;8.75;;;4.68;;
20739;SDS011;10530;49.968;19.844;2022-08-04T20:29:52;8.40;;;4.70;;
20739;SDS011;10530;49.968;19.844;2022-08-04T20:34:56;8.80;;;4.53;;
20739;SDS011;10530;49.968;19.844;2022-08-04T20:40:00;9.32;;;4.68;;
20739;SDS011;10530;49.968;19.844;2022-08-04T20:45:06;9.05;;;4.38;;
20739;SDS011;10530;49.968;19.844;2022-08-04T20:50:17;7.07;;;4.30;;
20739;SDS011;10530;49.968;19.844;2022-08-04T20:55:31;7.90;;;4.07;;
20739;SDS011;10530;49.968;19.844;2022-08-04T21:00:54;11.02;;;4.57;;
20739;SDS011;10530;49.968;19.844;2022-08-04T21:05:57;8.02;;;5.00;;
20739;SDS011;10530;49.968;19.844;2022-08-04T21:11:02;8.23;;;5.03;;
20739;SDS011;10530;49.968;19.844;2022-08-04T21:16:09;8.32;;;4.72;;
20739;SDS011;10530;49.968;19.844;2022-08-04T21:21:32;9.23;;;4.70;;
20739;SDS011;10530;49.968;19.844;2022-08-04T21:26:36;7.75;;;4.72;;
20739;SDS011;10530;49.968;19.844;2022-08-04T21:31:43;9.68;;;5.20;;
20739;SDS011;10530;49.968;19.844;2022-08-04T21:36:51;8.52;;;4.80;;
20739;SDS011;10530;49.968;19.844;2022-08-04T21:41:56;9.57;;;4.47;;
20739;SDS011;10530;49.968;19.844;2022-08-04T21:47:19;8.50;;;4.93;;
20739;SDS011;10530;49.968;19.844;2022-08-04T21:52:42;8.32;;;5.07;;
20739;SDS011;10530;49.968;19.844;2022-08-04T21:57:45;9.35;;;5.00;;
20739;SDS011;10530;49.968;19.844;2022-08-04T22:02:50;7.95;;;4.78;;
20739;SDS011;10530;49.968;19.844;2022-08-04T22:07:54;8.95;;;4.65;;
20739;SDS011;10530;49.968;19.844;2022-08-04T22:12:57;10.47;;;5.30;;
20739;SDS011;10530;49.968;19.844;2022-08-04T22:18:03;10.50;;;5.22;;
20739;SDS011;10530;49.968;19.844;2022-08-04T22:23:06;10.30;;;5.32;;
20739;SDS011;10530;49.968;19.844;2022-08-04T22:28:29;13.05;;;5.07;;
20739;SDS011;10530;49.968;19.844;2022-08-04T22:33:33;13.18;;;5.55;;
20739;SDS011;10530;49.968;19.844;2022-08-04T22:38:56;11.20;;;5.60;;
20739;SDS011;10530;49.968;19.844;2022-08-04T22:44:08;9.38;;;5.70;;
20739;SDS011;10530;49.968;19.844;2022-08-04T22:49:16;12.27;;;6.05;;
20739;SDS011;10530;49.968;19.844;2022-08-04T22:54:25;12.00;;;5.70;;
20739;SDS011;10530;49.968;19.844;2022-08-04T22:59:32;11.63;;;5.80;;
20739;SDS011;10530;49.968;19.844;2022-08-04T23:04:35;10.57;;;5.83;;
20739;SDS011;10530;49.968;19.844;2022-08-04T23:09:38;12.02;;;5.88;;
20739;SDS011;10530;49.968;19.844;2022-08-04T23:14:52;14.60;;;6.50;;
20739;SDS011;10530;49.968;19.844;2022-08-04T23:19:58;11.90;;;6.50;;
20739;SDS011;10530;49.968;19.844;2022-08-04T23:25:01;13.65;;;6.70;;
20739;SDS011;10530;49.968;19.844;2022-08-04T23:30:05;11.80;;;6.00;;
20739;SDS011;10530;49.968;19.844;2022-08-04T23:35:08;12.02;;;6.28;;
20739;SDS011;10530;49.968;19.844;2022-08-04T23:40:15;11.60;;;5.97;;
20739;SDS011;10530;49.968;19.844;2022-08-04T23:45:35;12.85;;;6.22;;
20739;SDS011;10530;49.968;19.844;2022-08-04T23:51:04;12.88;;;6.13;;
20739;SDS011;10530;49.968;19.844;2022-08-04T23:56:16;10.23;;;5.80;;
